createdAt,value
2018-11-10T00:01:03.602Z,8.40
2018-11-10T00:03:31.794Z,8.40
2018-11-10T00:06:00.214Z,8.40
2018-11-10T00:08:28.752Z,8.40
2018-11-10T00:10:56.835Z,8.40
2018-11-10T00:13:25.235Z,8.40
2018-11-10T00:15:53.416Z,8.40
2018-11-10T00:18:21.835Z,8.30
2018-11-10T00:20:50.042Z,8.30
2018-11-10T00:23:18.246Z,8.30
2018-11-10T00:25:46.425Z,8.30
2018-11-10T00:28:14.651Z,8.40
2018-11-10T00:30:43.054Z,8.40
2018-11-10T00:33:11.260Z,8.40
2018-11-10T00:35:39.449Z,8.40
2018-11-10T00:38:07.637Z,8.40
2018-11-10T00:40:35.833Z,8.40
2018-11-10T00:43:04.277Z,8.40
2018-11-10T00:45:32.465Z,8.40
2018-11-10T00:48:01.133Z,8.40
2018-11-10T00:50:29.333Z,8.30
2018-11-10T00:52:57.531Z,8.30
2018-11-10T00:55:25.727Z,8.30
2018-11-10T00:57:53.939Z,8.30
2018-11-10T01:00:22.134Z,8.30
2018-11-10T01:02:50.371Z,8.30
2018-11-10T01:05:18.579Z,8.30
2018-11-10T01:07:46.795Z,8.30
2018-11-10T01:10:14.983Z,8.30
2018-11-10T01:12:43.239Z,8.30
2018-11-10T01:15:12.987Z,8.30
2018-11-10T01:17:41.940Z,8.30
2018-11-10T01:20:11.091Z,8.30
2018-11-10T01:22:39.384Z,8.30
2018-11-10T01:25:09.083Z,8.30
2018-11-10T01:27:37.289Z,8.30
2018-11-10T01:30:08.304Z,8.30
2018-11-10T01:32:36.492Z,8.30
2018-11-10T01:35:04.907Z,8.30
2018-11-10T01:37:33.088Z,8.30
2018-11-10T01:40:01.287Z,8.30
2018-11-10T01:42:29.997Z,8.30
2018-11-10T01:44:58.187Z,8.30
2018-11-10T01:47:26.414Z,8.30
2018-11-10T01:49:54.607Z,8.30
2018-11-10T01:52:22.798Z,8.30
2018-11-10T01:54:50.986Z,8.30
2018-11-10T01:57:19.171Z,8.30
2018-11-10T01:59:47.367Z,8.20
2018-11-10T02:02:15.550Z,8.20
2018-11-10T02:04:43.744Z,8.20
2018-11-10T02:07:11.939Z,8.20
2018-11-10T02:09:40.126Z,8.20
2018-11-10T02:12:08.315Z,8.20
2018-11-10T02:14:36.735Z,8.30
2018-11-10T02:17:04.938Z,8.30
2018-11-10T02:19:33.162Z,8.30
2018-11-10T02:22:01.588Z,8.20
2018-11-10T02:24:29.791Z,8.20
2018-11-10T02:26:57.973Z,8.20
2018-11-10T02:29:26.175Z,8.20
2018-11-10T02:31:54.347Z,8.20
2018-11-10T02:34:22.758Z,8.30
2018-11-10T02:36:51.203Z,8.20
2018-11-10T02:39:19.402Z,8.20
2018-11-10T02:41:47.815Z,8.20
2018-11-10T02:44:16.006Z,8.20
2018-11-10T02:46:44.195Z,8.20
2018-11-10T02:49:13.307Z,8.20
2018-11-10T02:51:41.711Z,8.10
2018-11-10T02:54:09.908Z,8.10
2018-11-10T02:56:38.107Z,8.10
2018-11-10T02:59:06.304Z,8.10
2018-11-10T03:01:34.958Z,8.00
2018-11-10T03:04:03.154Z,8.00
2018-11-10T03:06:31.335Z,7.90
2018-11-10T03:08:59.530Z,8.00
2018-11-10T03:11:28.459Z,8.00
2018-11-10T03:13:56.659Z,8.00
2018-11-10T03:16:25.138Z,8.00
2018-11-10T03:18:53.282Z,8.00
2018-11-10T03:21:21.479Z,8.00
2018-11-10T03:23:49.678Z,8.00
2018-11-10T03:26:17.899Z,8.00
2018-11-10T03:28:46.101Z,8.00
2018-11-10T03:31:14.315Z,8.00
2018-11-10T03:33:42.562Z,8.00
2018-11-10T03:36:10.779Z,8.00
2018-11-10T03:38:39.207Z,7.90
2018-11-10T03:41:07.635Z,7.90
2018-11-10T03:43:36.287Z,7.90
2018-11-10T03:46:04.827Z,7.90
2018-11-10T03:48:33.082Z,7.90
2018-11-10T03:51:01.291Z,7.90
2018-11-10T03:53:29.507Z,7.80
2018-11-10T03:55:57.726Z,7.80
2018-11-10T03:58:25.933Z,7.80
2018-11-10T04:00:54.144Z,7.80
2018-11-10T04:03:22.338Z,7.80
2018-11-10T04:05:50.779Z,7.80
2018-11-10T04:08:18.974Z,7.80
2018-11-10T04:10:47.612Z,7.80
2018-11-10T04:13:16.042Z,7.80
2018-11-10T04:15:44.251Z,7.80
2018-11-10T04:18:12.907Z,7.80
2018-11-10T04:20:41.335Z,7.70
2018-11-10T04:23:09.760Z,7.60
2018-11-10T04:25:38.183Z,7.60
2018-11-10T04:28:06.611Z,7.60
2018-11-10T04:30:34.825Z,7.60
2018-11-10T04:33:03.022Z,7.60
2018-11-10T04:35:31.464Z,7.50
2018-11-10T04:37:59.667Z,7.50
2018-11-10T04:40:27.880Z,7.50
2018-11-10T04:42:56.315Z,7.60
2018-11-10T04:45:24.766Z,7.60
2018-11-10T04:47:53.200Z,7.60
2018-11-10T04:50:21.463Z,7.60
2018-11-10T04:52:49.663Z,7.60
2018-11-10T04:55:17.859Z,7.60
2018-11-10T04:57:46.066Z,7.60
2018-11-10T05:00:15.491Z,7.60
2018-11-10T05:02:44.694Z,7.60
2018-11-10T05:05:12.900Z,7.50
2018-11-10T05:07:41.107Z,7.50
2018-11-10T05:10:10.330Z,7.50
2018-11-10T05:12:38.586Z,7.60
2018-11-10T05:15:07.573Z,7.60
2018-11-10T05:17:35.985Z,7.60
2018-11-10T05:20:04.836Z,7.60
2018-11-10T05:22:33.027Z,7.60
2018-11-10T05:25:01.199Z,7.60
2018-11-10T05:27:29.422Z,7.60
2018-11-10T05:29:57.791Z,7.60
2018-11-10T05:32:25.968Z,7.60
2018-11-10T05:34:54.151Z,7.60
2018-11-10T05:37:22.343Z,7.60
2018-11-10T05:39:50.523Z,7.60
2018-11-10T05:42:18.718Z,7.60
2018-11-10T05:44:46.904Z,7.50
2018-11-10T05:47:15.103Z,7.60
2018-11-10T05:49:43.279Z,7.50
2018-11-10T05:52:11.694Z,7.50
2018-11-10T05:54:40.067Z,7.50
2018-11-10T05:57:08.295Z,7.60
2018-11-10T05:59:36.656Z,7.60
2018-11-10T06:02:05.002Z,7.50
2018-11-10T06:04:33.435Z,7.50
2018-11-10T06:07:01.621Z,7.50
2018-11-10T06:09:30.095Z,7.40
2018-11-10T06:11:58.274Z,7.40
2018-11-10T06:14:26.475Z,7.30
2018-11-10T06:16:54.683Z,7.30
2018-11-10T06:19:23.114Z,7.30
2018-11-10T06:21:51.330Z,7.30
2018-11-10T06:24:19.530Z,7.30
2018-11-10T06:26:47.753Z,7.30
2018-11-10T06:29:15.960Z,7.30
2018-11-10T06:31:44.183Z,7.40
2018-11-10T06:34:12.394Z,7.40
2018-11-10T06:36:40.812Z,7.40
2018-11-10T06:39:10.087Z,7.40
2018-11-10T06:41:38.287Z,7.30
2018-11-10T06:44:06.526Z,7.30
2018-11-10T06:46:34.756Z,7.30
2018-11-10T06:49:02.962Z,7.30
2018-11-10T06:51:31.377Z,7.30
2018-11-10T06:53:59.567Z,7.30
2018-11-10T06:56:27.977Z,7.30
2018-11-10T06:58:56.303Z,7.30
2018-11-10T07:01:24.527Z,7.30
2018-11-10T07:03:53.015Z,7.40
2018-11-10T07:06:21.234Z,7.40
2018-11-10T07:08:49.459Z,7.40
2018-11-10T07:11:17.656Z,7.40
2018-11-10T07:13:45.880Z,7.40
2018-11-10T07:16:14.087Z,7.30
2018-11-10T07:18:42.723Z,7.30
2018-11-10T07:21:11.073Z,7.30
2018-11-10T07:23:39.402Z,7.30
2018-11-10T07:26:07.811Z,7.40
2018-11-10T07:28:36.200Z,7.40
2018-11-10T07:31:04.432Z,7.30
2018-11-10T07:33:32.644Z,7.30
2018-11-10T07:36:00.839Z,7.40
2018-11-10T07:38:29.053Z,7.40
2018-11-10T07:40:57.282Z,7.40
2018-11-10T07:43:25.501Z,7.40
2018-11-10T07:45:53.762Z,7.40
2018-11-10T07:48:21.963Z,7.50
2018-11-10T07:50:50.166Z,7.50
2018-11-10T07:53:18.406Z,7.60
2018-11-10T07:55:47.461Z,7.60
2018-11-10T07:58:15.663Z,7.70
2018-11-10T08:00:43.859Z,7.70
2018-11-10T08:03:12.094Z,7.70
2018-11-10T08:05:40.287Z,7.70
2018-11-10T08:08:08.727Z,7.80
2018-11-10T08:10:36.927Z,7.80
2018-11-10T08:13:05.395Z,7.80
2018-11-10T08:15:33.594Z,7.80
2018-11-10T08:18:01.803Z,7.70
2018-11-10T08:20:30.013Z,7.80
2018-11-10T08:22:58.270Z,7.90
2018-11-10T08:25:26.487Z,7.90
2018-11-10T08:27:54.695Z,7.90
2018-11-10T08:30:22.898Z,8.00
2018-11-10T08:32:51.111Z,8.00
2018-11-10T08:35:19.318Z,8.10
2018-11-10T08:37:47.519Z,8.10
2018-11-10T08:40:16.851Z,8.00
2018-11-10T08:42:45.107Z,8.00
2018-11-10T08:45:14.295Z,8.00
2018-11-10T08:47:43.268Z,8.00
2018-11-10T08:50:13.198Z,7.90
2018-11-10T08:52:41.999Z,8.00
2018-11-10T08:55:11.712Z,7.90
2018-11-10T08:57:40.350Z,7.80
2018-11-10T09:00:09.972Z,7.90
2018-11-10T09:02:39.070Z,7.90
2018-11-10T09:05:08.391Z,8.00
2018-11-10T09:07:36.578Z,8.00
2018-11-10T09:10:05.969Z,7.90
2018-11-10T09:12:34.138Z,8.00
2018-11-10T09:15:02.403Z,8.00
2018-11-10T09:17:30.533Z,8.00
2018-11-10T09:19:59.354Z,8.00
2018-11-10T09:22:27.530Z,8.10
2018-11-10T09:24:55.737Z,8.00
2018-11-10T09:27:23.926Z,8.10
2018-11-10T09:29:52.223Z,8.30
2018-11-10T09:32:20.625Z,8.40
2018-11-10T09:34:48.815Z,8.60
2018-11-10T09:37:17.011Z,8.50
2018-11-10T09:39:45.219Z,8.50
2018-11-10T09:42:13.505Z,8.50
2018-11-10T09:44:41.562Z,8.50
2018-11-10T09:47:09.754Z,8.50
2018-11-10T09:49:37.974Z,8.60
2018-11-10T09:52:06.165Z,8.60
2018-11-10T09:54:34.356Z,8.70
2018-11-10T09:57:02.540Z,8.80
2018-11-10T09:59:30.995Z,8.80
2018-11-10T10:01:59.843Z,8.90
2018-11-10T10:04:27.716Z,9.00
2018-11-10T10:06:55.888Z,8.90
2018-11-10T10:09:24.523Z,8.90
2018-11-10T10:11:52.946Z,8.50
2018-11-10T10:14:21.362Z,8.40
2018-11-10T10:16:50.346Z,8.40
2018-11-10T10:19:18.711Z,8.40
2018-11-10T10:21:48.013Z,8.60
2018-11-10T10:24:16.356Z,8.70
2018-11-10T10:26:44.772Z,8.90
2018-11-10T10:29:12.988Z,9.00
2018-11-10T10:31:41.199Z,9.00
2018-11-10T10:34:09.540Z,9.00
2018-11-10T10:36:37.564Z,8.90
2018-11-10T10:39:07.392Z,8.80
2018-11-10T10:41:35.746Z,9.00
2018-11-10T10:44:05.059Z,9.10
2018-11-10T10:46:33.460Z,9.10
2018-11-10T10:49:01.983Z,9.20
2018-11-10T10:51:30.088Z,9.10
2018-11-10T10:53:58.274Z,9.20
2018-11-10T10:56:26.477Z,9.30
2018-11-10T10:58:54.635Z,9.30
2018-11-10T11:01:28.215Z,9.30
2018-11-10T11:04:04.635Z,9.30
2018-11-10T11:06:33.094Z,9.30
2018-11-10T11:09:02.093Z,9.30
2018-11-10T11:11:30.483Z,9.00
2018-11-10T11:13:58.912Z,9.10
2018-11-10T11:16:27.121Z,9.10
2018-11-10T11:18:55.350Z,9.00
2018-11-10T11:21:23.546Z,9.10
2018-11-10T11:23:51.972Z,8.90
2018-11-10T11:26:20.176Z,9.00
2018-11-10T11:28:48.375Z,9.10
2018-11-10T11:31:16.593Z,9.20
2018-11-10T11:33:44.847Z,9.40
2018-11-10T11:36:13.068Z,9.40
2018-11-10T11:38:41.282Z,9.40
2018-11-10T11:41:09.795Z,9.30
2018-11-10T11:43:37.923Z,9.30
2018-11-10T11:46:06.171Z,9.20
2018-11-10T11:48:34.370Z,9.30
2018-11-10T11:51:02.583Z,9.40
2018-11-10T11:53:30.788Z,9.40
2018-11-10T11:55:59.154Z,9.60
2018-11-10T11:58:27.513Z,9.60
2018-11-10T12:00:55.843Z,9.70
2018-11-10T12:03:24.047Z,9.80
2018-11-10T12:05:52.470Z,9.90
2018-11-10T12:08:20.687Z,10.00
2018-11-10T12:10:48.878Z,10.00
2018-11-10T12:13:17.111Z,9.90
2018-11-10T12:15:45.316Z,9.80
2018-11-10T12:18:13.719Z,9.80
2018-11-10T12:20:42.201Z,10.10
2018-11-10T12:23:10.319Z,10.20
2018-11-10T12:25:38.507Z,10.30
2018-11-10T12:28:06.698Z,10.40
2018-11-10T12:30:34.883Z,10.40
2018-11-10T12:33:03.074Z,10.40
2018-11-10T12:35:31.259Z,10.30
2018-11-10T12:37:59.449Z,10.20
2018-11-10T12:40:27.639Z,10.10
2018-11-10T12:42:56.063Z,10.10
2018-11-10T12:45:24.247Z,9.90
2018-11-10T12:47:52.444Z,9.90
2018-11-10T12:50:20.623Z,10.00
2018-11-10T12:52:49.045Z,10.10
2018-11-10T12:55:17.277Z,10.20
2018-11-10T12:57:46.460Z,10.40
2018-11-10T13:00:16.037Z,10.40
2018-11-10T13:02:44.859Z,10.40
2018-11-10T13:05:13.676Z,10.30
2018-11-10T13:07:43.658Z,10.40
2018-11-10T13:10:12.231Z,10.40
2018-11-10T13:12:41.028Z,10.50
2018-11-10T13:15:09.647Z,10.50
2018-11-10T13:17:38.191Z,10.50
2018-11-10T13:20:09.176Z,10.50
2018-11-10T13:22:37.387Z,10.50
2018-11-10T13:25:06.804Z,10.50
2018-11-10T13:27:35.155Z,10.50
2018-11-10T13:30:03.619Z,10.40
2018-11-10T13:32:31.849Z,10.40
2018-11-10T13:35:00.083Z,10.40
2018-11-10T13:37:28.514Z,10.40
2018-11-10T13:39:56.950Z,10.30
2018-11-10T13:42:25.231Z,10.30
2018-11-10T13:44:53.435Z,10.30
2018-11-10T13:47:21.648Z,10.30
2018-11-10T13:49:49.860Z,10.20
2018-11-10T13:52:18.735Z,10.30
2018-11-10T13:54:46.822Z,10.20
2018-11-10T13:57:15.043Z,10.20
2018-11-10T13:59:43.259Z,10.30
2018-11-10T14:02:11.466Z,10.30
2018-11-10T14:04:39.663Z,10.30
2018-11-10T14:07:07.883Z,10.30
2018-11-10T14:09:36.092Z,10.30
2018-11-10T14:12:04.508Z,10.30
2018-11-10T14:14:32.703Z,10.30
2018-11-10T14:17:00.891Z,10.30
2018-11-10T14:19:29.080Z,10.30
2018-11-10T14:21:57.263Z,10.40
2018-11-10T14:24:25.703Z,10.40
2018-11-10T14:26:53.886Z,10.40
2018-11-10T14:29:22.694Z,10.40
2018-11-10T14:31:50.891Z,10.40
2018-11-10T14:34:19.068Z,10.40
2018-11-10T14:36:47.254Z,10.40
2018-11-10T14:39:15.435Z,10.30
2018-11-10T14:41:43.839Z,10.20
2018-11-10T14:44:12.144Z,10.10
2018-11-10T14:46:40.759Z,10.10
2018-11-10T14:49:09.015Z,10.10
2018-11-10T14:51:37.193Z,10.00
2018-11-10T14:54:05.470Z,9.90
2018-11-10T14:56:34.270Z,9.90
2018-11-10T14:59:02.575Z,9.80
2018-11-10T15:01:31.443Z,9.80
2018-11-10T15:03:59.631Z,9.80
2018-11-10T15:06:27.798Z,9.80
2018-11-10T15:08:55.986Z,9.70
2018-11-10T15:11:24.203Z,9.70
2018-11-10T15:13:52.359Z,9.70
2018-11-10T15:16:20.970Z,9.70
2018-11-10T15:18:49.220Z,9.60
2018-11-10T15:21:17.644Z,9.60
2018-11-10T15:23:45.879Z,9.50
2018-11-10T15:26:14.279Z,9.50
2018-11-10T15:28:42.459Z,9.50
2018-11-10T15:31:10.703Z,9.50
2018-11-10T15:33:38.879Z,9.50
2018-11-10T15:36:07.079Z,9.50
2018-11-10T15:38:35.267Z,9.40
2018-11-10T15:41:03.667Z,9.40
2018-11-10T15:43:31.863Z,9.40
2018-11-10T15:46:00.235Z,9.40
2018-11-10T15:48:28.438Z,9.40
2018-11-10T15:50:56.687Z,9.40
2018-11-10T15:53:24.916Z,9.30
2018-11-10T15:55:53.107Z,9.30
2018-11-10T15:58:21.511Z,9.30
2018-11-10T16:00:49.702Z,9.30
2018-11-10T16:03:17.911Z,9.30
2018-11-10T16:05:46.171Z,9.30
2018-11-10T16:08:14.391Z,9.20
2018-11-10T16:10:42.645Z,9.20
2018-11-10T16:13:10.850Z,9.20
2018-11-10T16:15:39.062Z,9.10
2018-11-10T16:18:07.354Z,9.10
2018-11-10T16:20:35.566Z,9.10
2018-11-10T16:23:03.823Z,9.10
2018-11-10T16:25:32.039Z,9.10
2018-11-10T16:28:00.254Z,9.10
2018-11-10T16:30:28.487Z,9.10
2018-11-10T16:32:56.724Z,9.10
2018-11-10T16:35:24.931Z,9.10
2018-11-10T16:37:53.130Z,9.00
2018-11-10T16:40:21.366Z,9.00
2018-11-10T16:42:50.072Z,9.00
2018-11-10T16:45:20.009Z,9.00
2018-11-10T16:47:48.218Z,9.00
2018-11-10T16:50:16.444Z,9.00
2018-11-10T16:52:45.419Z,8.90
2018-11-10T16:55:13.715Z,8.90
2018-11-10T16:57:41.877Z,8.90
2018-11-10T17:00:12.280Z,8.90
2018-11-10T17:02:40.516Z,8.90
2018-11-10T17:05:09.071Z,8.90
2018-11-10T17:07:37.381Z,8.80
2018-11-10T17:10:07.763Z,8.80
2018-11-10T17:12:35.944Z,8.80
2018-11-10T17:15:04.149Z,8.80
2018-11-10T17:17:32.316Z,8.80
2018-11-10T17:20:00.954Z,8.80
2018-11-10T17:22:29.207Z,8.70
2018-11-10T17:24:57.314Z,8.70
2018-11-10T17:27:25.512Z,8.80
2018-11-10T17:29:53.776Z,8.70
2018-11-10T17:32:22.103Z,8.70
2018-11-10T17:34:50.303Z,8.70
2018-11-10T17:37:18.927Z,8.70
2018-11-10T17:39:47.327Z,8.70
2018-11-10T17:42:15.371Z,8.70
2018-11-10T17:44:43.979Z,8.70
2018-11-10T17:47:12.191Z,8.70
2018-11-10T17:49:40.597Z,8.70
2018-11-10T17:52:08.815Z,8.70
2018-11-10T17:54:37.069Z,8.60
2018-11-10T17:57:05.379Z,8.60
2018-11-10T17:59:33.786Z,8.60
2018-11-10T18:02:02.049Z,8.60
2018-11-10T18:04:30.187Z,8.50
2018-11-10T18:06:58.390Z,8.50
2018-11-10T18:09:26.578Z,8.50
2018-11-10T18:11:55.020Z,8.50
2018-11-10T18:14:23.223Z,8.50
2018-11-10T18:16:51.436Z,8.50
2018-11-10T18:19:19.607Z,8.50
2018-11-10T18:21:47.809Z,8.50
2018-11-10T18:24:15.994Z,8.50
2018-11-10T18:26:44.194Z,8.50
2018-11-10T18:29:12.814Z,8.50
2018-11-10T18:31:41.010Z,8.50
2018-11-10T18:34:09.555Z,8.40
2018-11-10T18:36:37.756Z,8.40
2018-11-10T18:39:07.988Z,8.40
2018-11-10T18:41:36.179Z,8.40
2018-11-10T18:44:04.386Z,8.40
2018-11-10T18:46:32.640Z,8.40
2018-11-10T18:49:00.774Z,8.40
2018-11-10T18:51:28.967Z,8.40
2018-11-10T18:53:57.411Z,8.40
2018-11-10T18:56:25.594Z,8.40
2018-11-10T18:58:53.795Z,8.40
2018-11-10T19:01:21.991Z,8.40
2018-11-10T19:03:50.395Z,8.40
2018-11-10T19:06:18.682Z,8.40
2018-11-10T19:08:46.758Z,8.40
2018-11-10T19:11:15.020Z,8.40
2018-11-10T19:13:43.195Z,8.30
2018-11-10T19:16:11.443Z,8.30
2018-11-10T19:18:39.665Z,8.30
2018-11-10T19:21:07.915Z,8.30
2018-11-10T19:23:36.092Z,8.30
2018-11-10T19:26:04.323Z,8.30
2018-11-10T19:28:32.537Z,8.30
2018-11-10T19:31:00.737Z,8.30
2018-11-10T19:33:29.367Z,8.30
2018-11-10T19:35:57.563Z,8.30
2018-11-10T19:38:26.373Z,8.30
2018-11-10T19:40:54.550Z,8.30
2018-11-10T19:43:22.734Z,8.30
2018-11-10T19:45:50.918Z,8.20
2018-11-10T19:48:19.099Z,8.20
2018-11-10T19:50:47.361Z,8.20
2018-11-10T19:53:15.475Z,8.20
2018-11-10T19:55:43.651Z,8.20
2018-11-10T19:58:12.050Z,8.20
2018-11-10T20:00:40.468Z,8.20
2018-11-10T20:03:08.620Z,8.20
2018-11-10T20:05:36.811Z,8.20
2018-11-10T20:08:05.367Z,8.20
2018-11-10T20:10:33.934Z,8.20
2018-11-10T20:13:02.189Z,8.20
2018-11-10T20:15:30.303Z,8.20
2018-11-10T20:17:58.819Z,8.20
2018-11-10T20:20:27.008Z,8.20
2018-11-10T20:22:55.406Z,8.20
2018-11-10T20:25:23.591Z,8.20
2018-11-10T20:27:51.779Z,8.20
2018-11-10T20:30:20.735Z,8.20
2018-11-10T20:32:49.365Z,8.10
2018-11-10T20:35:17.534Z,8.20
2018-11-10T20:37:46.396Z,8.10
2018-11-10T20:40:15.578Z,8.10
2018-11-10T20:42:43.891Z,8.10
2018-11-10T20:45:15.091Z,8.10
2018-11-10T20:47:43.738Z,8.10
2018-11-10T20:50:12.472Z,8.10
2018-11-10T20:52:40.665Z,8.10
2018-11-10T20:55:09.667Z,8.10
2018-11-10T20:57:38.550Z,8.10
2018-11-10T21:00:09.229Z,8.10
2018-11-10T21:02:37.449Z,8.10
2018-11-10T21:05:06.416Z,8.10
2018-11-10T21:07:34.651Z,8.10
2018-11-10T21:10:02.844Z,8.10
2018-11-10T21:12:31.224Z,8.10
2018-11-10T21:14:59.688Z,8.10
2018-11-10T21:17:27.891Z,8.10
2018-11-10T21:19:56.135Z,8.10
2018-11-10T21:22:24.322Z,8.10
2018-11-10T21:24:52.754Z,8.10
2018-11-10T21:27:21.198Z,8.10
2018-11-10T21:29:49.430Z,8.10
2018-11-10T21:32:18.279Z,8.10
2018-11-10T21:34:46.719Z,8.00
2018-11-10T21:37:15.155Z,8.00
2018-11-10T21:39:43.822Z,8.00
2018-11-10T21:42:12.259Z,8.00
2018-11-10T21:44:40.695Z,8.00
2018-11-10T21:47:08.899Z,8.00
2018-11-10T21:49:37.402Z,8.00
2018-11-10T21:52:05.631Z,8.00
2018-11-10T21:54:33.819Z,8.00
2018-11-10T21:57:02.019Z,8.10
2018-11-10T21:59:30.195Z,8.00
2018-11-10T22:01:58.390Z,8.00
2018-11-10T22:04:26.573Z,8.00
2018-11-10T22:06:54.988Z,8.00
2018-11-10T22:09:23.616Z,8.00
2018-11-10T22:11:51.603Z,7.90
2018-11-10T22:14:19.793Z,7.90
2018-11-10T22:16:47.987Z,7.90
2018-11-10T22:19:16.183Z,7.90
2018-11-10T22:21:44.366Z,7.90
2018-11-10T22:24:12.552Z,7.90
2018-11-10T22:26:40.744Z,7.90
2018-11-10T22:29:08.954Z,7.90
2018-11-10T22:31:37.148Z,7.90
2018-11-10T22:34:06.327Z,7.90
2018-11-10T22:36:34.631Z,7.90
2018-11-10T22:39:03.131Z,7.90
2018-11-10T22:41:31.754Z,8.80
2018-11-10T22:43:59.943Z,7.90
2018-11-10T22:46:28.131Z,7.90
2018-11-10T22:48:56.319Z,7.90
2018-11-10T22:51:24.506Z,7.90
2018-11-10T22:53:52.686Z,7.90
2018-11-10T22:56:20.851Z,7.90
2018-11-10T22:58:49.031Z,7.90
2018-11-10T23:01:17.215Z,7.90
2018-11-10T23:03:45.464Z,7.90
2018-11-10T23:06:13.579Z,7.90
2018-11-10T23:08:41.772Z,7.90
2018-11-10T23:11:09.989Z,7.90
2018-11-10T23:13:38.196Z,7.90
2018-11-10T23:16:06.407Z,7.90
2018-11-10T23:18:34.676Z,7.90
2018-11-10T23:21:02.881Z,7.90
2018-11-10T23:23:31.104Z,7.80
2018-11-10T23:25:59.550Z,7.90
2018-11-10T23:28:27.752Z,7.90
2018-11-10T23:30:55.953Z,7.90
2018-11-10T23:33:24.167Z,7.90
2018-11-10T23:35:52.363Z,7.90
2018-11-10T23:38:20.582Z,7.90
2018-11-10T23:40:49.001Z,7.90
2018-11-10T23:43:17.202Z,7.90
2018-11-10T23:45:45.606Z,7.90
2018-11-10T23:48:13.814Z,7.90
2018-11-10T23:50:42.023Z,7.90
2018-11-10T23:53:10.219Z,7.80
2018-11-10T23:55:38.418Z,7.80
2018-11-10T23:58:06.694Z,7.80
